createdAt,value
2018-07-14T00:00:45.180Z,11.97
2018-07-14T00:03:14.162Z,11.40
2018-07-14T00:05:43.157Z,12.87
2018-07-14T00:08:12.132Z,12.47
2018-07-14T00:10:42.012Z,12.77
2018-07-14T00:13:11.029Z,12.20
2018-07-14T00:15:40.062Z,12.93
2018-07-14T00:18:09.038Z,12.60
2018-07-14T00:20:39.202Z,12.30
2018-07-14T00:23:08.282Z,12.90
2018-07-14T00:25:42.694Z,12.20
2018-07-14T00:28:11.672Z,13.87
2018-07-14T00:30:40.617Z,11.63
2018-07-14T00:33:10.732Z,13.10
2018-07-14T00:35:39.717Z,12.77
2018-07-14T00:38:09.512Z,11.60
2018-07-14T00:40:38.507Z,12.33
2018-07-14T00:43:07.514Z,11.30
2018-07-14T00:45:36.470Z,13.43
2018-07-14T00:48:05.535Z,11.83
2018-07-14T00:50:34.515Z,12.30
2018-07-14T00:53:03.813Z,12.50
2018-07-14T00:55:33.616Z,12.50
2018-07-14T00:58:02.638Z,12.10
2018-07-14T01:00:32.704Z,10.90
2018-07-14T01:03:01.702Z,11.60
2018-07-14T01:05:31.936Z,13.30
2018-07-14T01:08:01.018Z,12.97
2018-07-14T01:10:29.970Z,12.50
2018-07-14T01:12:58.960Z,12.10
2018-07-14T01:15:27.969Z,12.50
2018-07-14T01:17:56.947Z,13.30
2018-07-14T01:20:25.922Z,12.40
2018-07-14T01:22:54.894Z,12.13
2018-07-14T01:25:24.882Z,12.17
2018-07-14T01:27:54.534Z,13.37
2018-07-14T01:30:23.526Z,12.43
2018-07-14T01:32:53.746Z,12.03
2018-07-14T01:35:22.714Z,11.57
2018-07-14T01:37:51.715Z,11.73
2018-07-14T01:40:20.676Z,12.47
2018-07-14T01:42:49.650Z,12.17
2018-07-14T01:45:18.599Z,12.63
2018-07-14T01:47:47.590Z,12.10
2018-07-14T01:50:16.526Z,13.10
2018-07-14T01:52:45.521Z,11.60
2018-07-14T01:55:14.487Z,13.37
2018-07-14T01:57:43.487Z,10.87
2018-07-14T02:00:12.952Z,11.87
2018-07-14T02:02:41.922Z,13.90
2018-07-14T02:05:10.882Z,13.90
2018-07-14T02:07:39.912Z,12.50
2018-07-14T02:10:09.245Z,12.83
2018-07-14T02:12:38.440Z,14.43
2018-07-14T02:15:07.418Z,12.13
2018-07-14T02:17:36.409Z,12.93
2018-07-14T02:20:05.509Z,13.50
2018-07-14T02:22:34.478Z,14.00
2018-07-14T02:25:03.439Z,13.20
2018-07-14T02:27:32.408Z,13.47
2018-07-14T02:30:01.122Z,13.83
2018-07-14T02:32:30.020Z,14.00
2018-07-14T02:34:58.979Z,12.90
2018-07-14T02:37:28.006Z,17.43
2018-07-14T02:39:56.951Z,18.73
2018-07-14T02:42:25.898Z,22.17
2018-07-14T02:44:55.017Z,22.63
2018-07-14T02:47:24.312Z,23.33
2018-07-14T02:49:53.307Z,18.30
2018-07-14T02:52:22.262Z,21.50
2018-07-14T02:54:52.805Z,21.70
2018-07-14T02:57:21.771Z,19.50
2018-07-14T02:59:51.304Z,19.63
2018-07-14T03:02:20.214Z,19.93
2018-07-14T03:04:49.185Z,18.60
2018-07-14T03:07:18.126Z,20.33
2018-07-14T03:09:47.106Z,20.10
2018-07-14T03:12:16.473Z,21.70
2018-07-14T03:14:45.481Z,21.13
2018-07-14T03:17:15.125Z,20.10
2018-07-14T03:19:44.807Z,19.67
2018-07-14T03:22:13.836Z,18.47
2018-07-14T03:24:42.827Z,23.20
2018-07-14T03:27:11.793Z,21.80
2018-07-14T03:29:40.823Z,21.83
2018-07-14T03:32:10.883Z,22.60
2018-07-14T03:34:39.853Z,20.27
2018-07-14T03:37:08.819Z,22.17
2018-07-14T03:39:37.794Z,21.40
2018-07-14T03:42:07.571Z,22.80
2018-07-14T03:44:36.559Z,22.37
2018-07-14T03:47:05.519Z,21.53
2018-07-14T03:49:35.029Z,21.20
2018-07-14T03:52:03.809Z,21.60
2018-07-14T03:54:32.731Z,23.20
2018-07-14T03:57:01.876Z,21.47
2018-07-14T03:59:31.377Z,20.97
2018-07-14T04:02:00.425Z,21.40
2018-07-14T04:04:29.398Z,21.00
2018-07-14T04:06:58.349Z,21.60
2018-07-14T04:09:28.651Z,21.00
2018-07-14T04:11:57.621Z,22.80
2018-07-14T04:14:26.621Z,23.70
2018-07-14T04:16:55.585Z,24.00
2018-07-14T04:19:24.566Z,24.13
2018-07-14T04:21:53.535Z,22.30
2018-07-14T04:24:22.518Z,23.67
2018-07-14T04:26:51.602Z,23.20
2018-07-14T04:29:21.830Z,23.23
2018-07-14T04:31:50.797Z,24.23
2018-07-14T04:34:19.802Z,25.77
2018-07-14T04:36:48.833Z,24.23
2018-07-14T04:39:17.807Z,23.80
2018-07-14T04:41:46.751Z,24.43
2018-07-14T04:44:15.817Z,22.60
2018-07-14T04:46:44.774Z,23.40
2018-07-14T04:49:13.743Z,20.97
2018-07-14T04:51:42.688Z,21.23
2018-07-14T04:54:13.525Z,20.27
2018-07-14T04:56:42.487Z,20.17
2018-07-14T04:59:11.470Z,20.57
2018-07-14T05:01:40.982Z,22.20
2018-07-14T05:04:10.125Z,22.60
2018-07-14T05:06:39.110Z,24.43
2018-07-14T05:09:08.355Z,23.40
2018-07-14T05:11:37.327Z,23.97
2018-07-14T05:14:06.353Z,26.27
2018-07-14T05:16:35.448Z,25.67
2018-07-14T05:19:04.449Z,26.30
2018-07-14T05:21:33.619Z,25.20
2018-07-14T05:24:03.423Z,26.00
2018-07-14T05:26:32.402Z,24.60
2018-07-14T05:29:02.107Z,23.50
2018-07-14T05:31:31.388Z,23.33
2018-07-14T05:34:00.379Z,23.90
2018-07-14T05:36:29.366Z,23.43
2018-07-14T05:38:59.137Z,24.00
2018-07-14T05:41:28.109Z,22.43
2018-07-14T05:43:57.122Z,25.33
2018-07-14T05:46:27.043Z,25.17
2018-07-14T05:48:56.239Z,26.07
2018-07-14T05:51:27.230Z,25.50
2018-07-14T05:53:56.273Z,23.73
2018-07-14T05:56:25.378Z,27.27
2018-07-14T05:58:54.323Z,24.83
2018-07-14T06:01:23.338Z,26.03
2018-07-14T06:03:53.264Z,23.20
2018-07-14T06:06:22.417Z,22.53
2018-07-14T06:08:53.246Z,23.97
2018-07-14T06:11:24.243Z,23.43
2018-07-14T06:13:53.229Z,23.53
2018-07-14T06:16:22.966Z,23.93
2018-07-14T06:18:51.942Z,22.50
2018-07-14T06:21:21.154Z,25.85
2018-07-14T06:23:50.506Z,23.73
2018-07-14T06:26:20.039Z,23.13
2018-07-14T06:28:49.002Z,22.13
2018-07-14T06:31:18.626Z,22.97
2018-07-14T06:33:47.595Z,22.17
2018-07-14T06:36:16.578Z,24.53
2018-07-14T06:38:46.067Z,24.73
2018-07-14T06:41:17.909Z,25.03
2018-07-14T06:43:46.875Z,23.13
2018-07-14T06:46:15.834Z,23.80
2018-07-14T06:48:44.850Z,23.37
2018-07-14T06:51:13.854Z,22.17
2018-07-14T06:53:42.829Z,23.10
2018-07-14T06:56:12.094Z,22.97
2018-07-14T06:58:41.052Z,22.13
2018-07-14T07:01:10.056Z,22.00
2018-07-14T07:03:39.005Z,22.50
2018-07-14T07:06:11.047Z,21.40
2018-07-14T07:08:40.088Z,22.10
2018-07-14T07:11:15.321Z,22.27
2018-07-14T07:13:53.970Z,21.40
2018-07-14T07:16:25.718Z,22.10
2018-07-14T07:18:58.034Z,23.27
2018-07-14T07:21:33.872Z,23.87
2018-07-14T07:24:04.623Z,21.53
2018-07-14T07:26:35.373Z,20.67
2018-07-14T07:29:05.670Z,21.80
2018-07-14T07:31:36.698Z,19.97
2018-07-14T07:34:06.828Z,19.93
2018-07-14T07:36:36.577Z,21.80
2018-07-14T07:39:06.492Z,21.60
2018-07-14T07:41:38.078Z,20.47
2018-07-14T07:44:08.658Z,19.70
2018-07-14T07:46:41.646Z,18.40
2018-07-14T07:49:10.698Z,21.33
2018-07-14T07:51:40.974Z,19.10
2018-07-14T07:54:10.008Z,17.80
2018-07-14T07:56:47.649Z,17.97
2018-07-14T07:59:18.356Z,16.10
2018-07-14T08:01:48.992Z,16.30
2018-07-14T08:04:21.643Z,15.60
2018-07-14T08:06:53.689Z,16.67
2018-07-14T08:09:22.776Z,14.80
2018-07-14T08:11:51.565Z,15.57
2018-07-14T08:14:21.664Z,15.43
2018-07-14T08:16:51.014Z,13.97
2018-07-14T08:19:21.036Z,13.70
2018-07-14T08:21:53.305Z,13.83
2018-07-14T08:24:22.834Z,15.10
2018-07-14T08:26:54.581Z,14.37
2018-07-14T08:29:23.278Z,13.13
2018-07-14T08:31:52.182Z,14.37
2018-07-14T08:34:20.893Z,12.60
2018-07-14T08:36:49.558Z,12.47
2018-07-14T08:39:20.198Z,13.70
2018-07-14T08:41:48.808Z,12.50
2018-07-14T08:44:17.408Z,13.67
2018-07-14T08:46:46.062Z,13.20
2018-07-14T08:49:16.351Z,13.47
2018-07-14T08:51:45.023Z,13.43
2018-07-14T08:54:13.621Z,14.50
2018-07-14T08:56:50.417Z,12.30
2018-07-14T08:59:20.867Z,14.73
2018-07-14T09:01:49.518Z,13.13
2018-07-14T09:04:18.481Z,11.80
2018-07-14T09:06:47.090Z,13.20
2018-07-14T09:09:15.727Z,13.30
2018-07-14T09:11:44.334Z,13.50
2018-07-14T09:14:13.016Z,13.33
2018-07-14T09:16:42.149Z,11.57
2018-07-14T09:19:10.762Z,11.97
2018-07-14T09:21:39.389Z,12.00
2018-07-14T09:24:07.999Z,12.83
2018-07-14T09:26:36.578Z,12.80
2018-07-14T09:29:05.306Z,12.40
2018-07-14T09:31:33.898Z,12.60
2018-07-14T09:34:02.508Z,12.47
2018-07-14T09:36:31.112Z,10.70
2018-07-14T09:38:59.740Z,12.17
2018-07-14T09:41:28.408Z,11.00
2018-07-14T09:43:57.134Z,11.63
2018-07-14T09:46:25.694Z,10.50
2018-07-14T09:48:54.323Z,10.00
2018-07-14T09:51:22.934Z,10.27
2018-07-14T09:53:51.537Z,9.50
2018-07-14T09:56:20.666Z,8.83
2018-07-14T09:58:50.373Z,10.07
2018-07-14T10:01:21.462Z,8.80
2018-07-14T10:03:50.060Z,8.40
2018-07-14T10:06:18.740Z,7.43
2018-07-14T10:08:47.388Z,7.73
2018-07-14T10:11:16.828Z,7.73
2018-07-14T10:13:53.938Z,7.37
2018-07-14T10:16:22.575Z,13.80
2018-07-14T10:18:51.154Z,9.10
2018-07-14T10:21:19.757Z,7.60
2018-07-14T10:23:48.374Z,8.43
2018-07-14T10:26:16.966Z,8.97
2018-07-14T10:28:45.570Z,8.30
2018-07-14T10:31:20.754Z,9.10
2018-07-14T10:33:49.394Z,8.07
2018-07-14T10:36:17.954Z,7.37
2018-07-14T10:38:46.609Z,7.07
2018-07-14T10:41:15.168Z,6.13
2018-07-14T10:43:43.810Z,7.50
2018-07-14T10:46:12.468Z,7.33
2018-07-14T10:48:41.614Z,11.10
2018-07-14T10:51:10.346Z,10.07
2018-07-14T10:53:39.561Z,8.23
2018-07-14T10:56:09.309Z,7.87
2018-07-14T10:58:38.199Z,7.57
2018-07-14T11:01:07.458Z,7.97
2018-07-14T11:03:37.546Z,7.87
2018-07-14T11:06:06.619Z,6.70
2018-07-14T11:08:36.411Z,6.90
2018-07-14T11:11:05.358Z,7.00
2018-07-14T11:13:34.334Z,7.70
2018-07-14T11:16:03.856Z,7.50
2018-07-14T11:18:33.030Z,8.40
2018-07-14T11:21:02.105Z,8.03
2018-07-14T11:23:31.133Z,8.40
2018-07-14T11:26:00.118Z,8.53
2018-07-14T11:28:29.111Z,8.40
2018-07-14T11:30:58.061Z,8.27
2018-07-14T11:33:26.794Z,8.20
2018-07-14T11:35:56.880Z,8.13
2018-07-14T11:38:25.869Z,8.10
2018-07-14T11:40:55.640Z,8.00
2018-07-14T11:43:25.254Z,9.30
2018-07-14T11:45:54.215Z,8.93
2018-07-14T11:48:24.297Z,9.07
2018-07-14T11:50:53.279Z,9.70
2018-07-14T11:53:22.399Z,8.33
2018-07-14T11:55:52.796Z,9.53
2018-07-14T11:58:23.155Z,10.20
2018-07-14T12:00:52.284Z,9.67
2018-07-14T12:03:21.414Z,9.37
2018-07-14T12:05:50.522Z,8.90
2018-07-14T12:08:19.660Z,9.17
2018-07-14T12:10:48.808Z,11.03
2018-07-14T12:13:17.963Z,9.33
2018-07-14T12:15:47.132Z,10.30
2018-07-14T12:18:17.020Z,10.60
2018-07-14T12:20:45.826Z,8.80
2018-07-14T12:23:16.767Z,11.60
2018-07-14T12:25:46.428Z,10.20
2018-07-14T12:28:15.527Z,9.93
2018-07-14T12:30:45.096Z,10.60
2018-07-14T12:33:14.209Z,10.83
2018-07-14T12:35:43.338Z,10.67
2018-07-14T12:38:12.471Z,9.53
2018-07-14T12:40:42.409Z,10.87
2018-07-14T12:43:11.534Z,9.43
2018-07-14T12:45:40.668Z,9.20
2018-07-14T12:48:11.045Z,10.50
2018-07-14T12:50:40.248Z,8.87
2018-07-14T12:53:09.358Z,9.30
2018-07-14T12:55:38.499Z,9.43
2018-07-14T12:58:07.731Z,10.40
2018-07-14T13:00:36.972Z,8.87
2018-07-14T13:03:12.824Z,9.10
2018-07-14T13:05:41.855Z,8.67
2018-07-14T13:08:11.294Z,8.27
2018-07-14T13:10:40.279Z,7.23
2018-07-14T13:13:09.238Z,7.80
2018-07-14T13:15:38.225Z,8.03
2018-07-14T13:18:07.195Z,7.53
2018-07-14T13:20:36.169Z,7.40
2018-07-14T13:23:05.133Z,9.13
2018-07-14T13:25:34.923Z,8.17
2018-07-14T13:28:03.911Z,8.37
2018-07-14T13:30:33.415Z,7.87
2018-07-14T13:33:02.427Z,7.80
2018-07-14T13:35:31.377Z,7.83
2018-07-14T13:38:00.361Z,8.10
2018-07-14T13:40:29.466Z,7.77
2018-07-14T13:42:59.376Z,8.23
2018-07-14T13:45:28.339Z,7.43
2018-07-14T13:47:57.333Z,7.57
2018-07-14T13:50:26.299Z,7.93
2018-07-14T13:52:55.299Z,8.93
2018-07-14T13:55:24.262Z,7.53
2018-07-14T13:57:53.770Z,8.87
2018-07-14T14:00:22.767Z,8.50
2018-07-14T14:02:51.726Z,8.10
2018-07-14T14:05:20.679Z,8.03
2018-07-14T14:07:50.183Z,8.20
2018-07-14T14:10:19.198Z,6.87
2018-07-14T14:12:48.204Z,7.20
2018-07-14T14:15:17.977Z,7.40
2018-07-14T14:17:47.588Z,7.23
2018-07-14T14:20:16.542Z,7.13
2018-07-14T14:22:45.531Z,7.30
2018-07-14T14:25:14.546Z,7.80
2018-07-14T14:27:43.529Z,6.67
2018-07-14T14:30:13.006Z,7.30
2018-07-14T14:32:42.419Z,6.97
2018-07-14T14:35:11.370Z,7.20
2018-07-14T14:37:40.355Z,7.80
2018-07-14T14:40:09.322Z,8.10
2018-07-14T14:42:38.287Z,6.60
2018-07-14T14:45:08.389Z,6.30
2018-07-14T14:47:38.155Z,6.80
2018-07-14T14:50:07.170Z,6.90
2018-07-14T14:52:36.152Z,7.07
2018-07-14T14:55:05.440Z,7.27
2018-07-14T14:57:41.746Z,7.20
2018-07-14T15:00:10.695Z,6.87
2018-07-14T15:02:39.699Z,8.13
2018-07-14T15:05:08.737Z,6.90
2018-07-14T15:07:37.705Z,7.80
2018-07-14T15:10:09.499Z,7.50
2018-07-14T15:12:40.061Z,6.37
2018-07-14T15:15:10.892Z,7.20
2018-07-14T15:17:39.861Z,7.33
2018-07-14T15:20:08.840Z,7.10
2018-07-14T15:22:37.834Z,7.43
2018-07-14T15:25:07.107Z,8.57
2018-07-14T15:27:36.055Z,7.90
2018-07-14T15:30:06.287Z,8.17
2018-07-14T15:32:35.497Z,7.53
2018-07-14T15:35:04.978Z,7.60
2018-07-14T15:37:34.124Z,7.40
2018-07-14T15:40:05.075Z,8.20
2018-07-14T15:42:36.005Z,8.00
2018-07-14T15:45:05.220Z,8.07
2018-07-14T15:47:34.348Z,7.97
2018-07-14T15:50:03.535Z,8.00
2018-07-14T15:52:33.024Z,7.83
2018-07-14T15:55:03.806Z,8.20
2018-07-14T15:57:33.112Z,8.70
2018-07-14T16:00:02.274Z,7.93
2018-07-14T16:02:31.477Z,8.13
2018-07-14T16:05:00.906Z,7.80
2018-07-14T16:07:30.100Z,9.00
2018-07-14T16:09:59.304Z,10.50
2018-07-14T16:12:29.811Z,9.83
2018-07-14T16:15:02.043Z,8.90
2018-07-14T16:17:31.913Z,8.60
2018-07-14T16:20:01.081Z,9.90
2018-07-14T16:22:30.219Z,9.53
2018-07-14T16:25:02.104Z,10.43
2018-07-14T16:27:31.678Z,9.90
2018-07-14T16:30:00.687Z,9.53
2018-07-14T16:32:29.674Z,9.53
2018-07-14T16:34:58.678Z,9.37
2018-07-14T16:37:28.187Z,9.37
2018-07-14T16:39:57.159Z,9.73
2018-07-14T16:42:26.134Z,9.87
2018-07-14T16:44:55.119Z,9.67
2018-07-14T16:47:24.121Z,10.10
2018-07-14T16:49:54.263Z,10.80
2018-07-14T16:52:23.260Z,11.70
2018-07-14T16:54:52.234Z,11.40
2018-07-14T16:57:21.223Z,11.23
2018-07-14T16:59:51.504Z,11.40
2018-07-14T17:02:20.519Z,12.57
2018-07-14T17:04:49.503Z,12.43
2018-07-14T17:07:18.502Z,12.20
2018-07-14T17:09:47.473Z,12.00
2018-07-14T17:12:16.461Z,13.27
2018-07-14T17:14:45.462Z,12.40
2018-07-14T17:17:14.604Z,11.77
2018-07-14T17:19:43.759Z,11.20
2018-07-14T17:22:12.900Z,13.87
2018-07-14T17:24:42.046Z,11.83
2018-07-14T17:27:11.264Z,13.40
2018-07-14T17:29:41.045Z,13.70
2018-07-14T17:32:10.227Z,13.43
2018-07-14T17:34:39.344Z,12.77
2018-07-14T17:37:08.474Z,12.83
2018-07-14T17:39:37.599Z,12.70
2018-07-14T17:42:07.244Z,13.60
2018-07-14T17:44:36.399Z,12.00
2018-07-14T17:47:08.431Z,13.17
2018-07-14T17:49:40.672Z,11.80
2018-07-14T17:52:13.708Z,11.30
2018-07-14T17:54:47.444Z,11.23
2018-07-14T17:57:16.842Z,12.57
2018-07-14T17:59:46.002Z,11.70
2018-07-14T18:02:15.099Z,11.33
2018-07-14T18:04:44.208Z,9.90
2018-07-14T18:07:13.348Z,10.30
2018-07-14T18:12:36.127Z,9.83
2018-07-14T18:15:05.459Z,11.13
2018-07-14T18:17:35.043Z,10.90
2018-07-14T18:20:04.670Z,11.10
2018-07-14T18:22:33.792Z,9.73
2018-07-14T18:25:03.466Z,10.07
2018-07-14T18:27:32.431Z,10.70
2018-07-14T18:30:01.400Z,10.50
2018-07-14T18:32:30.372Z,9.37
2018-07-14T18:34:59.365Z,9.50
2018-07-14T18:37:29.007Z,8.50
2018-07-14T18:39:59.787Z,8.30
2018-07-14T18:42:28.804Z,7.83
2018-07-14T18:44:57.786Z,9.00
2018-07-14T18:47:26.847Z,7.67
2018-07-14T18:49:55.839Z,7.60
2018-07-14T18:52:24.993Z,7.40
2018-07-14T18:54:53.852Z,7.50
2018-07-14T18:57:23.888Z,8.20
2018-07-14T19:02:28.119Z,7.60
2018-07-14T19:04:57.894Z,7.70
2018-07-14T19:07:26.876Z,8.07
2018-07-14T19:09:55.868Z,8.03
2018-07-14T19:12:24.875Z,8.77
2018-07-14T19:14:54.715Z,8.17
2018-07-14T19:17:23.646Z,7.87
2018-07-14T19:19:52.683Z,7.63
2018-07-14T19:22:21.717Z,7.50
2018-07-14T19:24:50.793Z,8.77
2018-07-14T19:27:19.787Z,8.00
2018-07-14T19:29:48.971Z,7.87
2018-07-14T19:32:17.978Z,8.10
2018-07-14T19:34:47.114Z,7.67
2018-07-14T19:37:16.085Z,7.67
2018-07-14T19:39:51.946Z,7.43
2018-07-14T19:42:25.442Z,7.50
2018-07-14T19:44:58.008Z,7.13
2018-07-14T19:47:32.052Z,7.70
2018-07-14T19:50:06.642Z,8.07
2018-07-14T19:52:38.687Z,7.70
2018-07-14T19:55:12.860Z,8.60
2018-07-14T19:57:45.148Z,6.83
2018-07-14T20:00:25.299Z,6.47
2018-07-14T20:03:02.352Z,6.53
2018-07-14T20:05:36.170Z,6.00
2018-07-14T20:08:16.612Z,6.00
2018-07-14T20:10:50.539Z,7.10
2018-07-14T20:13:19.571Z,8.17
2018-07-14T20:15:48.596Z,6.20
2018-07-14T20:18:17.623Z,5.80
2018-07-14T20:20:46.656Z,6.53
2018-07-14T20:23:16.465Z,6.33
2018-07-14T20:25:46.327Z,6.63
2018-07-14T20:28:15.347Z,6.00
2018-07-14T20:30:44.367Z,5.03
2018-07-14T20:33:14.140Z,5.87
2018-07-14T20:35:43.152Z,6.07
2018-07-14T20:38:12.152Z,6.20
2018-07-14T20:40:41.207Z,5.67
2018-07-14T20:43:10.210Z,6.73
2018-07-14T20:45:39.948Z,6.00
2018-07-14T20:48:08.954Z,5.60
2018-07-14T20:50:40.859Z,5.30
2018-07-14T20:53:09.850Z,5.20
2018-07-14T20:55:38.859Z,4.90
2018-07-14T20:58:07.876Z,4.90
2018-07-14T21:00:36.946Z,4.90
2018-07-14T21:03:05.950Z,5.10
2018-07-14T21:05:34.970Z,4.63
2018-07-14T21:08:04.150Z,5.23
2018-07-14T21:10:33.187Z,4.23
2018-07-14T21:13:02.215Z,5.27
2018-07-14T21:15:32.367Z,4.50
2018-07-14T21:18:01.375Z,4.90
2018-07-14T21:20:30.403Z,4.70
2018-07-14T21:22:59.416Z,4.83
2018-07-14T21:25:28.971Z,4.47
2018-07-14T21:27:58.164Z,4.57
2018-07-14T21:30:27.191Z,4.60
2018-07-14T21:32:56.196Z,4.23
2018-07-14T21:35:25.231Z,4.70
2018-07-14T21:37:54.222Z,4.87
2018-07-14T21:40:24.458Z,4.27
2018-07-14T21:42:53.473Z,5.07
2018-07-14T21:45:22.490Z,4.77
2018-07-14T21:47:52.184Z,4.10
2018-07-14T21:50:21.252Z,5.57
2018-07-14T21:52:50.270Z,4.73
2018-07-14T21:55:19.319Z,4.77
2018-07-14T21:57:48.316Z,4.60
2018-07-14T22:00:29.027Z,4.53
2018-07-14T22:02:58.029Z,4.43
2018-07-14T22:05:27.085Z,4.23
2018-07-14T22:07:56.129Z,4.70
2018-07-14T22:10:25.184Z,4.83
2018-07-14T22:12:54.984Z,4.50
2018-07-14T22:15:24.110Z,4.17
2018-07-14T22:17:53.684Z,4.13
2018-07-14T22:20:24.551Z,4.30
2018-07-14T22:22:54.318Z,4.20
2018-07-14T22:25:23.313Z,4.63
2018-07-14T22:27:52.270Z,4.07
2018-07-14T22:30:21.280Z,4.57
2018-07-14T22:32:50.231Z,3.90
2018-07-14T22:35:19.225Z,4.30
2018-07-14T22:37:48.179Z,4.33
2018-07-14T22:40:17.144Z,4.53
2018-07-14T22:42:46.953Z,4.80
2018-07-14T22:45:15.941Z,4.13
2018-07-14T22:47:45.339Z,4.17
2018-07-14T22:50:14.363Z,4.40
2018-07-14T22:52:43.323Z,4.10
2018-07-14T22:55:12.321Z,4.70
2018-07-14T22:57:41.272Z,4.70
2018-07-14T23:00:10.240Z,4.50
2018-07-14T23:02:39.219Z,4.20
2018-07-14T23:05:08.235Z,5.00
2018-07-14T23:07:37.187Z,4.80
2018-07-14T23:10:06.801Z,4.50
2018-07-14T23:12:35.745Z,4.67
2018-07-14T23:15:04.970Z,5.00
2018-07-14T23:17:33.928Z,5.10
2018-07-14T23:20:02.878Z,4.97
2018-07-14T23:22:31.855Z,4.83
2018-07-14T23:25:00.887Z,5.00
2018-07-14T23:27:29.856Z,4.90
2018-07-14T23:29:58.903Z,4.67
2018-07-14T23:32:27.873Z,4.87
2018-07-14T23:34:56.843Z,5.37
2018-07-14T23:37:26.710Z,5.53
2018-07-14T23:39:55.393Z,5.20
2018-07-14T23:42:24.254Z,5.53
2018-07-14T23:44:53.217Z,5.17
2018-07-14T23:47:22.192Z,5.70
2018-07-14T23:49:51.164Z,5.30
2018-07-14T23:52:20.178Z,5.47
2018-07-14T23:54:49.143Z,5.20
2018-07-14T23:57:18.139Z,5.67
2018-07-14T23:59:47.129Z,5.80
